sensor_id;sensor_type;location;lat;lon;timestamp;temperature;humidity
11284;DHT22;5698;47.332;11.180;2024-02-21T00:00:47;-0.60;99.90
11284;DHT22;5698;47.332;11.180;2024-02-21T00:03:15;-0.60;99.90
11284;DHT22;5698;47.332;11.180;2024-02-21T00:05:42;-0.70;99.90
11284;DHT22;5698;47.332;11.180;2024-02-21T00:08:08;-0.70;99.90
11284;DHT22;5698;47.332;11.180;2024-02-21T00:10:37;-0.70;99.90
11284;DHT22;5698;47.332;11.180;2024-02-21T00:13:04;-0.70;99.90
11284;DHT22;5698;47.332;11.180;2024-02-21T00:15:31;-0.80;99.90
11284;DHT22;5698;47.332;11.180;2024-02-21T00:17:58;-0.80;99.90
11284;DHT22;5698;47.332;11.180;2024-02-21T00:20:25;-0.80;99.90
11284;DHT22;5698;47.332;11.180;2024-02-21T00:22:52;-0.80;99.90
11284;DHT22;5698;47.332;11.180;2024-02-21T00:25:19;-0.80;99.90
11284;DHT22;5698;47.332;11.180;2024-02-21T00:27:47;-0.80;99.90
11284;DHT22;5698;47.332;11.180;2024-02-21T00:30:14;-0.80;99.90
11284;DHT22;5698;47.332;11.180;2024-02-21T00:32:41;-0.80;99.90
11284;DHT22;5698;47.332;11.180;2024-02-21T00:35:08;-0.80;99.90
11284;DHT22;5698;47.332;11.180;2024-02-21T00:37:35;-0.80;99.90
11284;DHT22;5698;47.332;11.180;2024-02-21T00:40:03;-0.90;99.90
11284;DHT22;5698;47.332;11.180;2024-02-21T00:42:30;-0.90;99.90
11284;DHT22;5698;47.332;11.180;2024-02-21T00:44:59;-0.90;99.90
11284;DHT22;5698;47.332;11.180;2024-02-21T00:47:26;-0.90;99.90
11284;DHT22;5698;47.332;11.180;2024-02-21T00:49:53;-0.90;99.90
11284;DHT22;5698;47.332;11.180;2024-02-21T00:52:20;-0.90;99.90
11284;DHT22;5698;47.332;11.180;2024-02-21T00:54:47;-0.90;99.90
11284;DHT22;5698;47.332;11.180;2024-02-21T00:57:14;-0.90;99.90
11284;DHT22;5698;47.332;11.180;2024-02-21T00:59:41;-0.90;99.90
11284;DHT22;5698;47.332;11.180;2024-02-21T01:02:10;-0.90;99.90
11284;DHT22;5698;47.332;11.180;2024-02-21T01:04:36;-0.90;99.90
11284;DHT22;5698;47.332;11.180;2024-02-21T01:07:04;-0.90;99.90
11284;DHT22;5698;47.332;11.180;2024-02-21T01:09:30;-0.80;99.90
11284;DHT22;5698;47.332;11.180;2024-02-21T01:11:57;-0.90;99.90
11284;DHT22;5698;47.332;11.180;2024-02-21T01:14:24;-0.90;99.90
11284;DHT22;5698;47.332;11.180;2024-02-21T01:16:51;-0.90;99.90
11284;DHT22;5698;47.332;11.180;2024-02-21T01:19:20;-0.90;99.90
11284;DHT22;5698;47.332;11.180;2024-02-21T01:21:46;-0.80;99.90
11284;DHT22;5698;47.332;11.180;2024-02-21T01:24:13;-0.90;99.90
11284;DHT22;5698;47.332;11.180;2024-02-21T01:26:40;-0.90;99.90
11284;DHT22;5698;47.332;11.180;2024-02-21T01:29:07;-0.90;99.90
11284;DHT22;5698;47.332;11.180;2024-02-21T01:31:34;-0.90;99.90
11284;DHT22;5698;47.332;11.180;2024-02-21T01:34:01;-1.00;99.90
11284;DHT22;5698;47.332;11.180;2024-02-21T01:36:29;-0.90;99.90
11284;DHT22;5698;47.332;11.180;2024-02-21T01:38:56;-1.00;99.90
11284;DHT22;5698;47.332;11.180;2024-02-21T01:41:23;-1.00;99.90
11284;DHT22;5698;47.332;11.180;2024-02-21T01:43:50;-0.90;99.90
11284;DHT22;5698;47.332;11.180;2024-02-21T01:46:18;-0.90;99.90
11284;DHT22;5698;47.332;11.180;2024-02-21T01:48:45;-0.80;99.90
11284;DHT22;5698;47.332;11.180;2024-02-21T01:51:12;-0.90;99.90
11284;DHT22;5698;47.332;11.180;2024-02-21T01:53:43;-0.90;99.90
11284;DHT22;5698;47.332;11.180;2024-02-21T01:56:12;-0.90;99.90
11284;DHT22;5698;47.332;11.180;2024-02-21T01:58:42;-0.90;99.90
11284;DHT22;5698;47.332;11.180;2024-02-21T02:01:10;-1.00;99.90
11284;DHT22;5698;47.332;11.180;2024-02-21T02:03:37;-1.00;99.90
11284;DHT22;5698;47.332;11.180;2024-02-21T02:06:05;-1.00;99.90
11284;DHT22;5698;47.332;11.180;2024-02-21T02:08:32;-1.00;99.90
11284;DHT22;5698;47.332;11.180;2024-02-21T02:11:01;-1.00;99.90
11284;DHT22;5698;47.332;11.180;2024-02-21T02:13:28;-1.00;99.90
11284;DHT22;5698;47.332;11.180;2024-02-21T02:15:55;-0.90;99.90
11284;DHT22;5698;47.332;11.180;2024-02-21T02:18:22;-0.90;99.90
11284;DHT22;5698;47.332;11.180;2024-02-21T02:20:49;-0.80;99.90
11284;DHT22;5698;47.332;11.180;2024-02-21T02:23:22;-0.90;99.90
11284;DHT22;5698;47.332;11.180;2024-02-21T02:25:50;-0.90;99.90
11284;DHT22;5698;47.332;11.180;2024-02-21T02:28:18;-0.90;99.90
11284;DHT22;5698;47.332;11.180;2024-02-21T02:30:45;-1.00;99.90
11284;DHT22;5698;47.332;11.180;2024-02-21T02:33:13;-1.00;99.90
11284;DHT22;5698;47.332;11.180;2024-02-21T02:35:40;-0.90;99.90
11284;DHT22;5698;47.332;11.180;2024-02-21T02:38:07;-0.90;99.90
11284;DHT22;5698;47.332;11.180;2024-02-21T02:40:37;-1.00;99.90
11284;DHT22;5698;47.332;11.180;2024-02-21T02:43:04;-1.00;99.90
11284;DHT22;5698;47.332;11.180;2024-02-21T02:45:32;-0.90;99.90
11284;DHT22;5698;47.332;11.180;2024-02-21T02:48:00;-0.80;99.90
11284;DHT22;5698;47.332;11.180;2024-02-21T02:50:27;-0.90;99.90
11284;DHT22;5698;47.332;11.180;2024-02-21T02:52:54;-0.90;99.90
11284;DHT22;5698;47.332;11.180;2024-02-21T02:55:21;-0.90;99.90
11284;DHT22;5698;47.332;11.180;2024-02-21T02:57:50;-0.90;99.90
11284;DHT22;5698;47.332;11.180;2024-02-21T03:00:17;-0.90;99.90
11284;DHT22;5698;47.332;11.180;2024-02-21T03:02:46;-0.90;99.90
11284;DHT22;5698;47.332;11.180;2024-02-21T03:05:14;-1.00;99.90
11284;DHT22;5698;47.332;11.180;2024-02-21T03:07:41;-1.00;99.90
11284;DHT22;5698;47.332;11.180;2024-02-21T03:10:09;-1.00;99.90
11284;DHT22;5698;47.332;11.180;2024-02-21T03:12:36;-1.10;99.90
11284;DHT22;5698;47.332;11.180;2024-02-21T03:15:06;-1.00;99.90
11284;DHT22;5698;47.332;11.180;2024-02-21T03:17:33;-1.10;99.90
11284;DHT22;5698;47.332;11.180;2024-02-21T03:20:01;-1.10;99.90
11284;DHT22;5698;47.332;11.180;2024-02-21T03:22:30;-1.10;99.90
11284;DHT22;5698;47.332;11.180;2024-02-21T03:24:58;-1.10;99.90
11284;DHT22;5698;47.332;11.180;2024-02-21T03:27:25;-1.10;99.90
11284;DHT22;5698;47.332;11.180;2024-02-21T03:29:51;-1.20;99.90
11284;DHT22;5698;47.332;11.180;2024-02-21T03:32:20;-1.20;99.90
11284;DHT22;5698;47.332;11.180;2024-02-21T03:34:47;-1.20;99.90
11284;DHT22;5698;47.332;11.180;2024-02-21T03:37:14;-1.20;99.90
11284;DHT22;5698;47.332;11.180;2024-02-21T03:39:41;-1.20;99.90
11284;DHT22;5698;47.332;11.180;2024-02-21T03:42:08;-1.20;99.90
11284;DHT22;5698;47.332;11.180;2024-02-21T03:44:35;-1.10;99.90
11284;DHT22;5698;47.332;11.180;2024-02-21T03:47:02;-1.20;99.90
11284;DHT22;5698;47.332;11.180;2024-02-21T03:49:30;-1.10;99.90
11284;DHT22;5698;47.332;11.180;2024-02-21T03:51:57;-1.20;99.90
11284;DHT22;5698;47.332;11.180;2024-02-21T03:54:24;-1.20;99.90
11284;DHT22;5698;47.332;11.180;2024-02-21T03:56:51;-1.20;99.90
11284;DHT22;5698;47.332;11.180;2024-02-21T03:59:18;-1.20;99.90
11284;DHT22;5698;47.332;11.180;2024-02-21T04:01:45;-1.20;99.90
11284;DHT22;5698;47.332;11.180;2024-02-21T04:04:12;-1.20;99.90
11284;DHT22;5698;47.332;11.180;2024-02-21T04:06:48;-1.30;99.90
11284;DHT22;5698;47.332;11.180;2024-02-21T04:09:15;-1.30;99.90
11284;DHT22;5698;47.332;11.180;2024-02-21T04:11:42;-1.30;99.90
11284;DHT22;5698;47.332;11.180;2024-02-21T04:14:09;-1.30;99.90
11284;DHT22;5698;47.332;11.180;2024-02-21T04:16:37;-1.30;99.90
11284;DHT22;5698;47.332;11.180;2024-02-21T04:19:04;-1.30;99.90
11284;DHT22;5698;47.332;11.180;2024-02-21T04:21:31;-1.30;99.90
11284;DHT22;5698;47.332;11.180;2024-02-21T04:23:59;-1.30;99.90
11284;DHT22;5698;47.332;11.180;2024-02-21T04:26:27;-1.30;99.90
11284;DHT22;5698;47.332;11.180;2024-02-21T04:28:54;-1.40;99.90
11284;DHT22;5698;47.332;11.180;2024-02-21T04:31:21;-1.40;99.90
11284;DHT22;5698;47.332;11.180;2024-02-21T04:33:48;-1.30;99.90
11284;DHT22;5698;47.332;11.180;2024-02-21T04:36:15;-1.40;99.90
11284;DHT22;5698;47.332;11.180;2024-02-21T04:38:42;-1.40;99.90
11284;DHT22;5698;47.332;11.180;2024-02-21T04:41:10;-1.40;99.90
11284;DHT22;5698;47.332;11.180;2024-02-21T04:43:37;-1.30;99.90
11284;DHT22;5698;47.332;11.180;2024-02-21T04:46:04;-1.40;99.90
11284;DHT22;5698;47.332;11.180;2024-02-21T04:48:31;-1.40;99.90
11284;DHT22;5698;47.332;11.180;2024-02-21T04:50:59;-1.40;99.90
11284;DHT22;5698;47.332;11.180;2024-02-21T04:53:26;-1.40;99.90
11284;DHT22;5698;47.332;11.180;2024-02-21T04:55:52;-1.40;99.90
11284;DHT22;5698;47.332;11.180;2024-02-21T04:58:21;-1.40;99.90
11284;DHT22;5698;47.332;11.180;2024-02-21T05:00:48;-1.40;99.90
11284;DHT22;5698;47.332;11.180;2024-02-21T05:03:15;-1.30;99.90
11284;DHT22;5698;47.332;11.180;2024-02-21T05:05:43;-1.30;99.90
11284;DHT22;5698;47.332;11.180;2024-02-21T05:08:10;-1.40;99.90
11284;DHT22;5698;47.332;11.180;2024-02-21T05:10:37;-1.40;99.90
11284;DHT22;5698;47.332;11.180;2024-02-21T05:13:04;-1.40;99.90
11284;DHT22;5698;47.332;11.180;2024-02-21T05:15:32;-1.40;99.90
11284;DHT22;5698;47.332;11.180;2024-02-21T05:17:59;-1.40;99.90
11284;DHT22;5698;47.332;11.180;2024-02-21T05:20:26;-1.50;99.90
11284;DHT22;5698;47.332;11.180;2024-02-21T05:22:53;-1.50;99.90
11284;DHT22;5698;47.332;11.180;2024-02-21T05:25:20;-1.50;99.90
11284;DHT22;5698;47.332;11.180;2024-02-21T05:27:47;-1.40;99.90
11284;DHT22;5698;47.332;11.180;2024-02-21T05:30:14;-1.50;99.90
11284;DHT22;5698;47.332;11.180;2024-02-21T05:32:42;-1.50;99.90
11284;DHT22;5698;47.332;11.180;2024-02-21T05:35:09;-1.50;99.90
11284;DHT22;5698;47.332;11.180;2024-02-21T05:37:36;-1.40;99.90
11284;DHT22;5698;47.332;11.180;2024-02-21T05:40:03;-1.50;99.90
11284;DHT22;5698;47.332;11.180;2024-02-21T05:42:30;-1.50;99.90
11284;DHT22;5698;47.332;11.180;2024-02-21T05:44:57;-1.50;99.90
11284;DHT22;5698;47.332;11.180;2024-02-21T05:47:24;-1.60;99.90
11284;DHT22;5698;47.332;11.180;2024-02-21T05:49:53;-1.60;99.90
11284;DHT22;5698;47.332;11.180;2024-02-21T05:52:19;-1.60;99.90
11284;DHT22;5698;47.332;11.180;2024-02-21T05:54:46;-1.70;99.90
11284;DHT22;5698;47.332;11.180;2024-02-21T05:57:17;-1.70;99.90
11284;DHT22;5698;47.332;11.180;2024-02-21T05:59:44;-1.80;99.90
11284;DHT22;5698;47.332;11.180;2024-02-21T06:02:11;-1.80;99.90
11284;DHT22;5698;47.332;11.180;2024-02-21T06:04:38;-1.80;99.90
11284;DHT22;5698;47.332;11.180;2024-02-21T06:07:07;-1.80;99.90
11284;DHT22;5698;47.332;11.180;2024-02-21T06:09:34;-1.90;99.90
11284;DHT22;5698;47.332;11.180;2024-02-21T06:12:01;-1.80;99.90
11284;DHT22;5698;47.332;11.180;2024-02-21T06:14:28;-1.80;99.90
11284;DHT22;5698;47.332;11.180;2024-02-21T06:16:55;-1.80;99.90
11284;DHT22;5698;47.332;11.180;2024-02-21T06:19:22;-1.80;99.90
11284;DHT22;5698;47.332;11.180;2024-02-21T06:21:48;-1.80;99.90
11284;DHT22;5698;47.332;11.180;2024-02-21T06:24:17;-1.80;99.90
11284;DHT22;5698;47.332;11.180;2024-02-21T06:26:44;-1.80;99.90
11284;DHT22;5698;47.332;11.180;2024-02-21T06:29:11;-1.80;99.90
11284;DHT22;5698;47.332;11.180;2024-02-21T06:31:39;-1.80;99.90
11284;DHT22;5698;47.332;11.180;2024-02-21T06:34:06;-1.80;99.90
11284;DHT22;5698;47.332;11.180;2024-02-21T06:36:33;-1.80;99.90
11284;DHT22;5698;47.332;11.180;2024-02-21T06:39:00;-1.90;99.90
11284;DHT22;5698;47.332;11.180;2024-02-21T06:41:28;-1.90;99.90
11284;DHT22;5698;47.332;11.180;2024-02-21T06:43:56;-1.90;99.90
11284;DHT22;5698;47.332;11.180;2024-02-21T06:46:23;-1.90;99.90
11284;DHT22;5698;47.332;11.180;2024-02-21T06:48:51;-1.90;99.90
11284;DHT22;5698;47.332;11.180;2024-02-21T06:51:18;-1.90;99.90
11284;DHT22;5698;47.332;11.180;2024-02-21T06:53:45;-1.90;99.90
11284;DHT22;5698;47.332;11.180;2024-02-21T06:56:12;-1.80;99.90
11284;DHT22;5698;47.332;11.180;2024-02-21T06:58:40;-1.80;99.90
11284;DHT22;5698;47.332;11.180;2024-02-21T07:01:07;-1.70;99.90
11284;DHT22;5698;47.332;11.180;2024-02-21T07:03:34;-1.70;99.90
11284;DHT22;5698;47.332;11.180;2024-02-21T07:06:02;-1.70;99.90
11284;DHT22;5698;47.332;11.180;2024-02-21T07:08:29;-1.70;99.90
11284;DHT22;5698;47.332;11.180;2024-02-21T07:10:56;-1.70;99.90
11284;DHT22;5698;47.332;11.180;2024-02-21T07:13:23;-1.70;99.90
11284;DHT22;5698;47.332;11.180;2024-02-21T07:15:51;-1.60;99.90
11284;DHT22;5698;47.332;11.180;2024-02-21T07:18:18;-1.60;99.90
11284;DHT22;5698;47.332;11.180;2024-02-21T07:20:45;-1.50;99.90
11284;DHT22;5698;47.332;11.180;2024-02-21T07:23:12;-1.50;99.90
11284;DHT22;5698;47.332;11.180;2024-02-21T07:25:39;-1.40;99.90
11284;DHT22;5698;47.332;11.180;2024-02-21T07:28:06;-1.40;99.90
11284;DHT22;5698;47.332;11.180;2024-02-21T07:30:34;-1.30;99.90
11284;DHT22;5698;47.332;11.180;2024-02-21T07:33:03;-1.30;99.90
11284;DHT22;5698;47.332;11.180;2024-02-21T07:35:32;-1.20;99.90
11284;DHT22;5698;47.332;11.180;2024-02-21T07:38:00;-1.10;99.90
11284;DHT22;5698;47.332;11.180;2024-02-21T07:40:29;-1.00;99.90
11284;DHT22;5698;47.332;11.180;2024-02-21T07:42:56;-1.00;99.90
11284;DHT22;5698;47.332;11.180;2024-02-21T07:45:23;-0.90;99.90
11284;DHT22;5698;47.332;11.180;2024-02-21T07:47:50;-0.90;99.90
11284;DHT22;5698;47.332;11.180;2024-02-21T07:50:19;-0.90;99.90
11284;DHT22;5698;47.332;11.180;2024-02-21T07:52:46;-0.80;99.90
11284;DHT22;5698;47.332;11.180;2024-02-21T07:55:13;-0.70;99.90
11284;DHT22;5698;47.332;11.180;2024-02-21T07:57:39;-0.70;99.90
11284;DHT22;5698;47.332;11.180;2024-02-21T08:00:07;-0.60;99.90
11284;DHT22;5698;47.332;11.180;2024-02-21T08:02:35;-0.50;99.90
11284;DHT22;5698;47.332;11.180;2024-02-21T08:05:03;-0.40;99.90
11284;DHT22;5698;47.332;11.180;2024-02-21T08:07:31;-0.40;99.90
11284;DHT22;5698;47.332;11.180;2024-02-21T08:09:58;-0.30;99.90
11284;DHT22;5698;47.332;11.180;2024-02-21T08:12:25;-0.30;99.90
11284;DHT22;5698;47.332;11.180;2024-02-21T08:14:52;-0.20;99.90
11284;DHT22;5698;47.332;11.180;2024-02-21T08:17:19;-0.20;99.90
11284;DHT22;5698;47.332;11.180;2024-02-21T08:19:47;0.00;99.90
11284;DHT22;5698;47.332;11.180;2024-02-21T08:22:14;-0.10;99.90
11284;DHT22;5698;47.332;11.180;2024-02-21T08:24:43;0.00;99.90
11284;DHT22;5698;47.332;11.180;2024-02-21T08:27:10;0.00;99.90
11284;DHT22;5698;47.332;11.180;2024-02-21T08:29:37;0.20;99.90
11284;DHT22;5698;47.332;11.180;2024-02-21T08:32:04;0.20;99.90
11284;DHT22;5698;47.332;11.180;2024-02-21T08:34:31;0.30;99.90
11284;DHT22;5698;47.332;11.180;2024-02-21T08:36:59;0.40;99.90
11284;DHT22;5698;47.332;11.180;2024-02-21T08:39:26;0.50;99.90
11284;DHT22;5698;47.332;11.180;2024-02-21T08:41:57;0.60;99.90
11284;DHT22;5698;47.332;11.180;2024-02-21T08:44:24;0.70;99.90
11284;DHT22;5698;47.332;11.180;2024-02-21T08:46:52;0.80;99.90
11284;DHT22;5698;47.332;11.180;2024-02-21T08:49:19;1.00;99.90
11284;DHT22;5698;47.332;11.180;2024-02-21T08:51:45;1.10;99.90
11284;DHT22;5698;47.332;11.180;2024-02-21T08:54:13;1.20;99.90
11284;DHT22;5698;47.332;11.180;2024-02-21T08:56:39;1.40;99.90
11284;DHT22;5698;47.332;11.180;2024-02-21T08:59:08;1.60;99.90
11284;DHT22;5698;47.332;11.180;2024-02-21T09:01:35;1.90;99.90
11284;DHT22;5698;47.332;11.180;2024-02-21T09:04:02;2.10;99.90
11284;DHT22;5698;47.332;11.180;2024-02-21T09:06:30;2.40;99.90
11284;DHT22;5698;47.332;11.180;2024-02-21T09:08:59;2.70;99.90
11284;DHT22;5698;47.332;11.180;2024-02-21T09:11:26;3.10;99.90
11284;DHT22;5698;47.332;11.180;2024-02-21T09:13:53;3.40;99.90
11284;DHT22;5698;47.332;11.180;2024-02-21T09:16:22;3.90;99.90
11284;DHT22;5698;47.332;11.180;2024-02-21T09:18:49;4.30;99.90
11284;DHT22;5698;47.332;11.180;2024-02-21T09:21:16;4.70;99.90
11284;DHT22;5698;47.332;11.180;2024-02-21T09:23:43;5.00;99.90
11284;DHT22;5698;47.332;11.180;2024-02-21T09:26:10;5.40;99.90
11284;DHT22;5698;47.332;11.180;2024-02-21T09:28:39;5.70;99.90
11284;DHT22;5698;47.332;11.180;2024-02-21T09:31:06;6.10;99.90
11284;DHT22;5698;47.332;11.180;2024-02-21T09:33:34;6.30;99.90
11284;DHT22;5698;47.332;11.180;2024-02-21T09:36:03;6.30;99.40
11284;DHT22;5698;47.332;11.180;2024-02-21T09:38:31;6.40;99.80
11284;DHT22;5698;47.332;11.180;2024-02-21T09:40:59;6.50;99.10
11284;DHT22;5698;47.332;11.180;2024-02-21T09:43:27;6.70;98.60
11284;DHT22;5698;47.332;11.180;2024-02-21T09:45:55;6.80;97.20
11284;DHT22;5698;47.332;11.180;2024-02-21T09:48:33;6.90;96.80
11284;DHT22;5698;47.332;11.180;2024-02-21T09:51:07;7.10;96.60
11284;DHT22;5698;47.332;11.180;2024-02-21T09:53:37;7.50;89.50
11284;DHT22;5698;47.332;11.180;2024-02-21T09:56:07;7.90;92.80
11284;DHT22;5698;47.332;11.180;2024-02-21T09:58:35;8.30;90.10
11284;DHT22;5698;47.332;11.180;2024-02-21T10:01:02;8.40;88.80
11284;DHT22;5698;47.332;11.180;2024-02-21T10:03:32;8.70;85.70
11284;DHT22;5698;47.332;11.180;2024-02-21T10:05:59;8.90;87.40
11284;DHT22;5698;47.332;11.180;2024-02-21T10:08:29;9.20;81.80
11284;DHT22;5698;47.332;11.180;2024-02-21T10:10:56;9.40;83.90
11284;DHT22;5698;47.332;11.180;2024-02-21T10:13:26;9.60;82.40
11284;DHT22;5698;47.332;11.180;2024-02-21T10:16:04;9.60;79.70
11284;DHT22;5698;47.332;11.180;2024-02-21T10:18:32;9.80;78.20
11284;DHT22;5698;47.332;11.180;2024-02-21T10:21:03;10.10;75.10
11284;DHT22;5698;47.332;11.180;2024-02-21T10:23:43;10.20;76.60
11284;DHT22;5698;47.332;11.180;2024-02-21T10:26:10;10.10;74.20
11284;DHT22;5698;47.332;11.180;2024-02-21T10:28:38;10.20;71.90
11284;DHT22;5698;47.332;11.180;2024-02-21T10:31:08;10.20;72.10
11284;DHT22;5698;47.332;11.180;2024-02-21T10:33:35;10.40;72.10
11284;DHT22;5698;47.332;11.180;2024-02-21T10:36:07;10.60;70.90
11284;DHT22;5698;47.332;11.180;2024-02-21T10:38:35;10.70;67.40
11284;DHT22;5698;47.332;11.180;2024-02-21T10:41:04;10.70;73.40
11284;DHT22;5698;47.332;11.180;2024-02-21T10:43:37;10.70;70.70
11284;DHT22;5698;47.332;11.180;2024-02-21T10:46:05;10.80;69.00
11284;DHT22;5698;47.332;11.180;2024-02-21T10:48:38;10.90;67.60
11284;DHT22;5698;47.332;11.180;2024-02-21T10:51:16;10.90;69.80
11284;DHT22;5698;47.332;11.180;2024-02-21T10:53:47;10.90;66.80
11284;DHT22;5698;47.332;11.180;2024-02-21T10:56:25;10.90;67.40
11284;DHT22;5698;47.332;11.180;2024-02-21T10:58:53;10.90;66.20
11284;DHT22;5698;47.332;11.180;2024-02-21T11:01:21;10.90;64.40
11284;DHT22;5698;47.332;11.180;2024-02-21T11:03:49;10.90;64.00
11284;DHT22;5698;47.332;11.180;2024-02-21T11:06:17;10.90;64.60
11284;DHT22;5698;47.332;11.180;2024-02-21T11:08:45;10.90;66.20
11284;DHT22;5698;47.332;11.180;2024-02-21T11:11:13;10.90;64.40
11284;DHT22;5698;47.332;11.180;2024-02-21T11:13:46;10.90;64.80
11284;DHT22;5698;47.332;11.180;2024-02-21T11:16:22;10.90;64.40
11284;DHT22;5698;47.332;11.180;2024-02-21T11:18:49;10.90;62.90
11284;DHT22;5698;47.332;11.180;2024-02-21T11:21:16;10.80;63.90
11284;DHT22;5698;47.332;11.180;2024-02-21T11:23:43;10.80;64.40
11284;DHT22;5698;47.332;11.180;2024-02-21T11:26:10;10.90;63.10
11284;DHT22;5698;47.332;11.180;2024-02-21T11:28:56;10.70;67.30
11284;DHT22;5698;47.332;11.180;2024-02-21T11:31:23;10.80;64.60
11284;DHT22;5698;47.332;11.180;2024-02-21T11:33:53;10.70;64.30
11284;DHT22;5698;47.332;11.180;2024-02-21T11:36:24;10.90;62.20
11284;DHT22;5698;47.332;11.180;2024-02-21T11:38:52;11.00;61.50
11284;DHT22;5698;47.332;11.180;2024-02-21T11:41:19;11.00;63.10
11284;DHT22;5698;47.332;11.180;2024-02-21T11:43:48;11.00;64.30
11284;DHT22;5698;47.332;11.180;2024-02-21T11:46:16;10.90;62.70
11284;DHT22;5698;47.332;11.180;2024-02-21T11:48:44;11.00;62.40
11284;DHT22;5698;47.332;11.180;2024-02-21T11:51:21;11.00;64.20
11284;DHT22;5698;47.332;11.180;2024-02-21T11:53:51;10.90;65.20
11284;DHT22;5698;47.332;11.180;2024-02-21T11:56:18;10.90;63.30
11284;DHT22;5698;47.332;11.180;2024-02-21T11:58:47;10.90;63.50
11284;DHT22;5698;47.332;11.180;2024-02-21T12:01:14;10.90;62.20
11284;DHT22;5698;47.332;11.180;2024-02-21T12:03:42;10.90;63.40
11284;DHT22;5698;47.332;11.180;2024-02-21T12:06:16;10.90;63.00
11284;DHT22;5698;47.332;11.180;2024-02-21T12:08:46;10.90;62.90
11284;DHT22;5698;47.332;11.180;2024-02-21T12:11:18;10.90;64.20
11284;DHT22;5698;47.332;11.180;2024-02-21T12:13:46;10.80;67.40
11284;DHT22;5698;47.332;11.180;2024-02-21T12:16:15;10.80;64.90
11284;DHT22;5698;47.332;11.180;2024-02-21T12:18:43;11.00;62.70
11284;DHT22;5698;47.332;11.180;2024-02-21T12:21:10;11.10;64.50
11284;DHT22;5698;47.332;11.180;2024-02-21T12:23:38;11.30;65.80
11284;DHT22;5698;47.332;11.180;2024-02-21T12:26:05;11.40;65.50
11284;DHT22;5698;47.332;11.180;2024-02-21T12:28:33;11.50;64.50
11284;DHT22;5698;47.332;11.180;2024-02-21T12:31:02;11.70;63.80
11284;DHT22;5698;47.332;11.180;2024-02-21T12:33:30;11.90;64.50
11284;DHT22;5698;47.332;11.180;2024-02-21T12:35:58;12.10;63.50
11284;DHT22;5698;47.332;11.180;2024-02-21T12:38:25;12.30;62.30
11284;DHT22;5698;47.332;11.180;2024-02-21T12:40:52;12.50;63.50
11284;DHT22;5698;47.332;11.180;2024-02-21T12:43:19;12.70;62.80
11284;DHT22;5698;47.332;11.180;2024-02-21T12:45:48;12.80;61.30
11284;DHT22;5698;47.332;11.180;2024-02-21T12:48:16;13.00;61.50
11284;DHT22;5698;47.332;11.180;2024-02-21T12:50:49;13.10;62.80
11284;DHT22;5698;47.332;11.180;2024-02-21T12:53:17;13.20;61.70
11284;DHT22;5698;47.332;11.180;2024-02-21T12:55:45;13.20;62.60
11284;DHT22;5698;47.332;11.180;2024-02-21T12:58:12;13.30;61.20
11284;DHT22;5698;47.332;11.180;2024-02-21T13:00:39;13.40;62.60
11284;DHT22;5698;47.332;11.180;2024-02-21T13:03:06;13.50;62.70
11284;DHT22;5698;47.332;11.180;2024-02-21T13:05:36;13.60;62.80
11284;DHT22;5698;47.332;11.180;2024-02-21T13:08:05;13.60;64.00
11284;DHT22;5698;47.332;11.180;2024-02-21T13:10:32;13.60;60.30
11284;DHT22;5698;47.332;11.180;2024-02-21T13:13:00;13.60;60.00
11284;DHT22;5698;47.332;11.180;2024-02-21T13:15:27;13.60;62.00
11284;DHT22;5698;47.332;11.180;2024-02-21T13:17:55;13.70;62.30
11284;DHT22;5698;47.332;11.180;2024-02-21T13:20:22;13.60;63.60
11284;DHT22;5698;47.332;11.180;2024-02-21T13:22:51;13.50;61.90
11284;DHT22;5698;47.332;11.180;2024-02-21T13:25:18;13.50;61.20
11284;DHT22;5698;47.332;11.180;2024-02-21T13:27:46;13.60;59.40
11284;DHT22;5698;47.332;11.180;2024-02-21T13:30:14;13.70;60.70
11284;DHT22;5698;47.332;11.180;2024-02-21T13:32:43;13.60;61.60
11284;DHT22;5698;47.332;11.180;2024-02-21T13:35:11;13.60;60.10
11284;DHT22;5698;47.332;11.180;2024-02-21T13:37:40;13.50;60.50
11284;DHT22;5698;47.332;11.180;2024-02-21T13:40:09;13.40;61.10
11284;DHT22;5698;47.332;11.180;2024-02-21T13:42:36;13.30;62.60
11284;DHT22;5698;47.332;11.180;2024-02-21T13:45:04;13.10;64.60
11284;DHT22;5698;47.332;11.180;2024-02-21T13:47:32;13.00;63.20
11284;DHT22;5698;47.332;11.180;2024-02-21T13:49:59;12.90;64.20
11284;DHT22;5698;47.332;11.180;2024-02-21T13:52:26;12.80;64.50
11284;DHT22;5698;47.332;11.180;2024-02-21T13:54:53;12.60;66.20
11284;DHT22;5698;47.332;11.180;2024-02-21T13:57:21;12.50;65.10
11284;DHT22;5698;47.332;11.180;2024-02-21T13:59:48;12.40;65.20
11284;DHT22;5698;47.332;11.180;2024-02-21T14:02:16;12.30;68.50
11284;DHT22;5698;47.332;11.180;2024-02-21T14:04:43;12.20;67.40
11284;DHT22;5698;47.332;11.180;2024-02-21T14:07:10;12.10;66.40
11284;DHT22;5698;47.332;11.180;2024-02-21T14:09:37;12.00;68.80
11284;DHT22;5698;47.332;11.180;2024-02-21T14:12:05;11.90;69.60
11284;DHT22;5698;47.332;11.180;2024-02-21T14:14:35;11.80;67.40
11284;DHT22;5698;47.332;11.180;2024-02-21T14:17:02;11.80;68.70
11284;DHT22;5698;47.332;11.180;2024-02-21T14:19:30;11.80;70.20
11284;DHT22;5698;47.332;11.180;2024-02-21T14:21:57;11.60;71.80
11284;DHT22;5698;47.332;11.180;2024-02-21T14:24:24;11.50;69.10
11284;DHT22;5698;47.332;11.180;2024-02-21T14:26:51;11.50;69.00
11284;DHT22;5698;47.332;11.180;2024-02-21T14:29:18;11.50;68.20
11284;DHT22;5698;47.332;11.180;2024-02-21T14:31:46;11.50;68.00
11284;DHT22;5698;47.332;11.180;2024-02-21T14:34:13;11.50;70.40
11284;DHT22;5698;47.332;11.180;2024-02-21T14:36:40;11.30;72.70
11284;DHT22;5698;47.332;11.180;2024-02-21T14:39:07;11.20;72.10
11284;DHT22;5698;47.332;11.180;2024-02-21T14:41:34;11.20;71.20
11284;DHT22;5698;47.332;11.180;2024-02-21T14:44:02;11.10;71.60
11284;DHT22;5698;47.332;11.180;2024-02-21T14:46:29;11.00;73.40
11284;DHT22;5698;47.332;11.180;2024-02-21T14:48:57;10.90;76.00
11284;DHT22;5698;47.332;11.180;2024-02-21T14:51:24;10.70;77.70
11284;DHT22;5698;47.332;11.180;2024-02-21T14:53:51;10.60;79.10
11284;DHT22;5698;47.332;11.180;2024-02-21T14:56:20;10.40;79.90
11284;DHT22;5698;47.332;11.180;2024-02-21T14:58:48;10.30;80.30
11284;DHT22;5698;47.332;11.180;2024-02-21T15:01:16;10.20;79.90
11284;DHT22;5698;47.332;11.180;2024-02-21T15:03:42;10.10;80.50
11284;DHT22;5698;47.332;11.180;2024-02-21T15:06:11;10.00;80.80
11284;DHT22;5698;47.332;11.180;2024-02-21T15:08:38;10.00;82.20
11284;DHT22;5698;47.332;11.180;2024-02-21T15:11:05;9.80;83.10
11284;DHT22;5698;47.332;11.180;2024-02-21T15:13:33;9.80;83.30
11284;DHT22;5698;47.332;11.180;2024-02-21T15:16:00;9.70;84.30
11284;DHT22;5698;47.332;11.180;2024-02-21T15:18:27;9.70;84.50
11284;DHT22;5698;47.332;11.180;2024-02-21T15:20:55;9.60;84.60
11284;DHT22;5698;47.332;11.180;2024-02-21T15:23:23;9.60;83.00
11284;DHT22;5698;47.332;11.180;2024-02-21T15:25:51;9.50;81.00
11284;DHT22;5698;47.332;11.180;2024-02-21T15:28:18;9.50;82.30
11284;DHT22;5698;47.332;11.180;2024-02-21T15:30:44;9.40;84.30
11284;DHT22;5698;47.332;11.180;2024-02-21T15:33:11;9.30;85.80
11284;DHT22;5698;47.332;11.180;2024-02-21T15:35:38;9.10;86.80